Time;durP1;ratioP1;P1;durP2;ratioP2;P2;SDS_P1;SDS_P2;PMS_P1;PMS_P2;Temp;Humidity;BMP_temperature;BMP_pressure;BME280_temperature;BME280_humidity;BME280_pressure;Samples;Min_cycle;Max_cycle;Signal;HPM_P1;HPM_P2
2022/06/15 00:02:27;;;;;;;6.10;5.60;;;15.20;99.90;;;16.05;74.16;98034.84;5199316;28;20272;-51
2022/06/15 00:05:01;;;;;;;6.97;6.00;;;15.20;99.90;;;16.02;74.37;98024.41;5189783;28;20253;-56
2022/06/15 00:07:34;;;;;;;6.50;5.97;;;15.20;99.90;;;15.95;74.11;98022.44;5194314;28;20219;-52
2022/06/15 00:10:10;;;;;;;6.53;5.82;;;15.10;99.90;;;15.92;73.22;98017.16;5196173;28;20206;-56
2022/06/15 00:12:43;;;;;;;5.80;5.40;;;15.10;99.90;;;15.93;72.24;98031.81;5195485;28;20230;-55
2022/06/15 00:15:17;;;;;;;6.47;5.97;;;15.00;99.90;;;15.81;74.40;98023.59;5183102;28;20233;-54
2022/06/15 00:17:50;;;;;;;6.53;5.90;;;15.00;99.90;;;15.76;74.25;98019.13;5177689;28;20276;-53
2022/06/15 00:20:23;;;;;;;6.72;6.18;;;15.00;99.90;;;15.79;75.15;98025.22;5198567;28;20280;-56
2022/06/15 00:22:56;;;;;;;6.43;5.82;;;15.00;99.90;;;15.74;75.77;98028.53;5194772;28;20309;-54
2022/06/15 00:25:31;;;;;;;6.55;5.95;;;15.00;99.90;;;15.73;74.26;98026.75;5206307;28;20218;-54
2022/06/15 00:28:04;;;;;;;6.82;6.22;;;14.90;99.90;;;15.72;74.30;98030.16;5194772;28;20645;-54
2022/06/15 00:30:37;;;;;;;6.00;5.53;;;14.90;99.90;;;15.69;74.80;98032.59;5187115;28;20255;-52
2022/06/15 00:33:10;;;;;;;5.85;5.30;;;14.90;99.90;;;15.68;74.32;98033.44;5194013;28;20235;-57
2022/06/15 00:35:49;;;;;;;6.18;5.70;;;14.70;99.90;;;15.62;74.46;98027.09;5183983;28;20623;-55
2022/06/15 00:38:23;;;;;;;6.43;5.65;;;14.70;99.90;;;15.59;74.51;98025.28;5215047;28;20234;-56
2022/06/15 00:40:58;;;;;;;6.15;5.65;;;14.70;99.90;;;15.47;75.65;98029.94;5188685;28;20598;-55
2022/06/15 00:43:35;;;;;;;6.53;5.93;;;14.60;99.90;;;15.42;75.22;98027.19;5179901;28;20202;-58
2022/06/15 00:46:22;;;;;;;6.40;5.78;;;14.50;99.90;;;15.43;75.64;98020.34;5191194;28;20244;-55
2022/06/15 00:49:01;;;;;;;6.65;6.05;;;14.50;99.90;;;15.41;75.46;98022.84;5197014;28;20264;-56
2022/06/15 00:51:34;;;;;;;6.78;6.28;;;14.60;99.90;;;15.41;75.00;98021.97;5208042;28;20721;-54
2022/06/15 00:54:09;;;;;;;7.22;6.53;;;14.60;99.90;;;15.30;75.35;98024.97;5187284;28;20203;-57
2022/06/15 00:56:45;;;;;;;6.65;6.00;;;14.50;99.90;;;15.30;74.01;98019.84;5195830;28;20757;-55
2022/06/15 00:59:25;;;;;;;6.65;5.57;;;14.40;99.90;;;15.33;73.66;98024.22;5194338;28;20195;-57
2022/06/15 01:01:58;;;;;;;6.72;6.22;;;14.40;99.90;;;15.20;74.23;98022.00;5183978;28;20275;-57
2022/06/15 01:04:40;;;;;;;6.22;5.63;;;14.30;99.90;;;15.16;74.48;98026.09;5195402;28;20230;-54
2022/06/15 01:07:31;;;;;;;6.90;6.15;;;14.30;99.90;;;15.17;74.86;98017.59;5199626;28;20321;-55
2022/06/15 01:10:13;;;;;;;6.38;5.88;;;14.40;99.90;;;15.10;75.81;98019.00;5205624;28;20811;-55
2022/06/15 01:13:02;;;;;;;5.68;5.18;;;14.30;99.90;;;15.09;75.53;98016.38;5186170;28;20199;-53
2022/06/15 01:15:45;;;;;;;6.60;6.07;;;14.30;99.90;;;15.16;75.55;98014.94;5203681;28;20237;-54
2022/06/15 01:18:30;;;;;;;6.40;5.90;;;14.40;99.90;;;15.13;75.55;98015.69;5209739;28;20241;-54
2022/06/15 01:21:20;;;;;;;6.50;5.90;;;14.30;99.90;;;15.06;75.43;98023.97;5188501;28;20199;-54
2022/06/15 01:24:28;;;;;;;7.05;5.82;;;14.20;99.90;;;15.04;76.82;98011.03;5189670;28;20199;-56
2022/06/15 01:27:47;;;;;;;7.60;6.90;;;14.30;99.90;;;14.79;74.30;98004.00;5202902;28;20246;-58
2022/06/15 01:30:29;;;;;;;6.25;5.75;;;13.90;99.90;;;14.71;75.86;97994.16;5192739;28;20726;-51
2022/06/15 01:33:16;;;;;;;6.60;6.10;;;14.00;99.90;;;14.71;75.06;97992.50;5193987;28;20230;-54
2022/06/15 01:36:03;;;;;;;5.75;5.25;;;13.90;99.90;;;14.71;75.99;97978.72;5206306;28;20206;-56
2022/06/15 01:38:45;;;;;;;6.90;6.30;;;13.90;99.90;;;14.67;74.65;97977.72;5192108;28;20753;-55
2022/06/15 01:41:27;;;;;;;6.82;6.15;;;13.80;99.90;;;14.71;76.82;97983.84;5190593;28;20203;-54
2022/06/15 01:44:08;;;;;;;7.03;6.35;;;13.80;99.90;;;14.69;75.90;97981.25;5194740;28;20207;-55
2022/06/15 01:46:46;;;;;;;6.68;6.07;;;13.80;99.90;;;14.69;76.68;97981.25;5194479;28;20549;-55
2022/06/15 01:49:25;;;;;;;6.90;6.18;;;13.90;99.90;;;14.58;75.43;97982.47;5200911;28;20622;-55
2022/06/15 01:52:01;;;;;;;7.57;6.25;;;13.80;99.90;;;14.61;77.31;97977.44;5187302;28;20207;-55
2022/06/15 01:54:40;;;;;;;6.82;6.30;;;13.80;99.90;;;14.60;77.26;97979.16;5178407;28;20668;-55
2022/06/15 01:57:16;;;;;;;7.18;6.57;;;13.90;99.90;;;14.71;77.15;97979.63;5205976;28;20661;-53
2022/06/15 01:59:56;;;;;;;7.10;6.40;;;13.90;99.90;;;14.73;76.56;97970.25;5185104;28;20675;-55
2022/06/15 02:02:41;;;;;;;6.70;6.13;;;14.00;99.90;;;14.74;76.46;97964.31;5202859;28;20229;-55
2022/06/15 02:05:23;;;;;;;6.60;6.00;;;13.90;99.90;;;14.64;76.01;97957.88;5189940;28;20210;-53
2022/06/15 02:08:07;;;;;;;6.53;5.90;;;13.80;99.90;;;14.55;75.19;97957.50;5200438;28;20219;-52
2022/06/15 02:10:51;;;;;;;6.65;6.07;;;13.70;99.90;;;14.56;76.06;97956.66;5205006;28;20605;-55
2022/06/15 02:13:31;;;;;;;7.13;6.47;;;13.70;99.90;;;14.52;76.82;97952.22;5189903;28;20204;-55
2022/06/15 02:16:11;;;;;;;7.15;6.55;;;13.80;99.90;;;14.58;78.36;97956.75;5199938;28;20234;-56
2022/06/15 02:18:47;;;;;;;7.35;6.65;;;13.80;99.90;;;14.60;76.06;97962.84;5199357;28;20257;-55
2022/06/15 02:21:23;;;;;;;6.50;6.00;;;13.80;99.90;;;14.51;76.20;97954.72;5193407;28;20222;-55
2022/06/15 02:24:00;;;;;;;6.93;6.28;;;13.70;99.90;;;14.47;75.46;97957.94;5183865;28;20662;-54
2022/06/15 02:26:37;;;;;;;7.05;6.35;;;13.70;99.90;;;14.53;76.72;97953.09;5190609;28;20201;-53
2022/06/15 02:29:16;;;;;;;6.80;6.30;;;13.80;99.90;;;14.57;75.97;97967.88;5216712;28;20195;-56
2022/06/15 02:31:50;;;;;;;7.70;7.00;;;13.80;99.90;;;14.57;77.19;97949.84;5183171;28;20194;-53
2022/06/15 02:34:25;;;;;;;7.47;6.88;;;13.80;99.90;;;14.58;77.03;97956.75;5192145;28;20231;-55
2022/06/15 02:36:58;;;;;;;7.18;6.47;;;13.80;99.90;;;14.54;76.03;97950.59;5179008;28;20226;-53
2022/06/15 02:39:31;;;;;;;7.65;6.85;;;13.70;99.90;;;14.57;76.43;97950.72;5199678;28;20221;-54
2022/06/15 02:42:27;;;;;;;6.78;6.18;;;13.70;99.90;;;14.57;78.14;97950.72;5185727;28;20282;-56
2022/06/15 02:45:06;;;;;;;7.15;6.65;;;13.80;99.90;;;14.52;78.83;97946.19;5200065;28;20629;-54
2022/06/15 02:47:42;;;;;;;6.85;6.35;;;13.80;99.90;;;14.43;77.37;97941.50;5190787;28;20626;-53
2022/06/15 02:50:20;;;;;;;6.63;6.13;;;13.70;99.90;;;14.42;77.60;97953.50;5193771;28;20199;-51
2022/06/15 02:53:00;;;;;;;7.15;6.45;;;13.60;99.90;;;14.48;77.75;97949.41;5193894;28;20341;-51
2022/06/15 02:55:35;;;;;;;7.43;6.82;;;13.70;99.90;;;14.46;78.05;97951.94;5191506;28;20661;-55
2022/06/15 02:58:12;;;;;;;6.43;5.93;;;13.70;99.90;;;14.44;79.31;97953.53;5178870;28;20254;-55
2022/06/15 03:00:45;;;;;;;7.13;6.53;;;13.70;99.90;;;14.48;78.91;97954.53;5198866;28;20736;-55
2022/06/15 03:03:19;;;;;;;7.07;6.47;;;13.80;99.90;;;14.43;78.91;97967.22;5188427;28;20206;-53
2022/06/15 03:05:53;;;;;;;7.85;7.15;;;13.70;99.90;;;14.45;79.55;97970.75;5184627;28;20195;-54
2022/06/15 03:08:27;;;;;;;8.10;6.90;;;13.70;99.90;;;14.41;78.37;97984.28;5198889;28;20245;-54
2022/06/15 03:11:00;;;;;;;6.07;5.68;;;13.70;99.90;;;14.33;80.16;97983.91;5177570;28;20655;-55
2022/06/15 03:13:33;;;;;;;6.85;6.28;;;13.60;99.90;;;14.27;80.53;97981.09;5197137;28;20656;-53
2022/06/15 03:16:06;;;;;;;7.32;6.72;;;13.50;99.90;;;14.31;79.52;97990.72;5192999;28;20552;-58
2022/06/15 03:18:40;;;;;;;7.40;6.80;;;13.60;99.90;;;14.22;80.96;97987.72;5187844;28;20223;-52
2022/06/15 03:21:15;;;;;;;7.32;6.70;;;13.50;99.90;;;14.18;80.28;97986.69;5178176;28;20223;-54
2022/06/15 03:23:48;;;;;;;6.85;6.35;;;13.40;99.90;;;14.17;79.39;97989.22;5198036;28;20202;-54
2022/06/15 03:26:21;;;;;;;7.13;6.43;;;13.40;99.90;;;14.13;79.46;97985.59;5198021;28;20238;-54
2022/06/15 03:28:54;;;;;;;5.72;5.32;;;13.30;99.90;;;13.95;78.45;97988.22;5194034;28;20243;-54
2022/06/15 03:31:28;;;;;;;6.82;6.30;;;13.10;99.90;;;13.92;80.23;97988.09;5207819;28;20252;-57
2022/06/15 03:34:01;;;;;;;9.00;6.68;;;13.10;99.90;;;13.91;80.99;97982.91;5188367;28;20277;-57
2022/06/15 03:36:35;;;;;;;6.38;5.85;;;13.20;99.90;;;13.93;80.56;97984.69;5220865;28;20667;-54
2022/06/15 03:39:08;;;;;;;7.07;6.47;;;13.20;99.90;;;13.94;81.71;97986.47;5191692;28;20247;-56
2022/06/15 03:41:42;;;;;;;7.30;6.70;;;13.20;99.90;;;13.99;81.67;97984.09;5213934;28;20689;-54
2022/06/15 03:44:15;;;;;;;7.22;6.63;;;13.30;99.90;;;14.03;81.54;97982.56;5197559;28;20226;-58
2022/06/15 03:46:48;;;;;;;7.15;6.55;;;13.40;99.90;;;14.14;80.10;97981.38;5178024;28;20199;-56
2022/06/15 03:49:21;;;;;;;7.18;6.57;;;13.40;99.90;;;14.15;80.82;97976.28;5195438;28;20617;-58
2022/06/15 03:51:56;;;;;;;7.20;6.50;;;13.40;99.90;;;14.17;81.06;97981.50;5188927;28;20351;-56
2022/06/15 03:54:29;;;;;;;7.45;6.85;;;13.50;99.90;;;14.17;79.86;97973.78;5176886;28;20299;-57
2022/06/15 03:57:02;;;;;;;7.28;6.68;;;13.40;99.90;;;14.15;79.72;97980.53;5185693;28;20733;-57
2022/06/15 03:59:35;;;;;;;6.93;6.32;;;13.40;99.90;;;14.14;79.03;97978.78;5202457;28;20266;-55
2022/06/15 04:02:09;;;;;;;6.90;6.32;;;13.40;99.90;;;14.22;80.65;97976.53;5203489;28;20195;-55
2022/06/15 04:04:42;;;;;;;7.28;6.57;;;13.40;99.90;;;14.18;78.38;97968.69;5199097;28;20199;-54
2022/06/15 04:10:10;;;;;;;7.22;6.72;;;13.40;99.90;;;14.16;77.53;97961.72;5203111;28;20307;-55
2022/06/15 04:12:45;;;;;;;7.30;6.70;;;13.40;99.90;;;14.15;78.52;97966.00;5186189;28;20226;-55
2022/06/15 04:15:18;;;;;;;6.72;6.13;;;13.40;99.90;;;14.09;77.15;97957.16;5195845;28;20297;-56
2022/06/15 04:17:52;;;;;;;7.50;6.80;;;13.30;99.90;;;14.10;77.20;97959.75;5198834;28;20246;-54
2022/06/15 04:20:36;;;;;;;8.05;6.05;;;13.30;99.90;;;14.13;78.54;97953.88;5198255;28;20298;-55
2022/06/15 04:23:16;;;;;;;9.07;7.18;;;13.40;99.90;;;14.17;78.38;97954.09;5197723;28;20225;-53
2022/06/15 04:25:52;;;;;;;7.13;6.60;;;13.50;99.90;;;14.17;79.24;97959.25;5195029;28;20206;-52
2022/06/15 04:28:37;;;;;;;7.15;6.50;;;13.50;99.90;;;14.21;77.94;97957.69;5191153;28;20218;-51
2022/06/15 04:31:10;;;;;;;7.55;6.88;;;13.40;99.90;;;14.25;77.97;97954.44;5192721;28;20223;-51
2022/06/15 04:33:44;;;;;;;6.88;6.25;;;13.40;99.90;;;14.22;78.59;97956.84;5206977;28;20207;-58
2022/06/15 04:36:17;;;;;;;6.85;5.93;;;13.50;99.90;;;14.27;78.35;97945.09;5204458;28;20600;-53
2022/06/15 04:38:51;;;;;;;7.18;6.57;;;13.50;99.90;;;14.33;77.51;97944.47;5193120;28;20234;-55
2022/06/15 04:41:29;;;;;;;7.63;6.88;;;13.60;99.90;;;14.48;78.18;97949.41;5177176;28;20222;-53
2022/06/15 04:44:03;;;;;;;6.22;5.75;;;13.80;99.90;;;14.91;78.64;97954.72;5171207;28;20202;-55
2022/06/15 04:46:36;;;;;;;6.95;6.22;;;14.30;99.90;;;15.69;75.58;97954.44;5180005;28;20286;-52
2022/06/15 04:49:09;;;;;;;6.85;6.15;;;15.10;99.90;;;16.67;72.55;97956.28;5173354;28;20715;-53
2022/06/15 04:51:43;;;;;;;5.93;5.28;;;16.00;99.90;;;17.72;68.26;97960.59;5214931;28;20245;-56
2022/06/15 04:54:18;;;;;;;6.32;5.55;;;17.00;99.90;;;18.58;63.63;97959.66;5193234;28;20223;-56
2022/06/15 04:56:51;;;;;;;5.45;4.93;;;17.60;99.90;;;19.15;60.56;97959.44;5175345;28;20225;-53
2022/06/15 04:59:24;;;;;;;5.95;5.40;;;18.10;99.90;;;19.76;58.66;97950.53;5200719;28;20249;-55
2022/06/15 05:01:58;;;;;;;6.22;5.72;;;18.40;99.90;;;20.19;56.45;97953.16;5189797;28;20206;-54
2022/06/15 05:04:31;;;;;;;6.20;5.60;;;18.60;99.90;;;20.62;55.68;97954.91;5212506;28;20729;-53
2022/06/15 05:07:05;;;;;;;6.25;5.65;;;19.00;99.50;;;20.85;53.83;97949.28;5186226;28;20726;-57
2022/06/15 05:09:40;;;;;;;6.30;5.57;;;19.20;98.70;;;21.07;53.06;97954.00;5204382;28;20194;-55
2022/06/15 05:12:13;;;;;;;5.50;5.00;;;19.30;98.40;;;21.60;52.03;97955.72;5200708;28;20237;-54
2022/06/15 05:14:47;;;;;;;5.32;4.68;;;19.70;97.80;;;21.66;51.28;97961.03;5202173;28;20564;-55
2022/06/15 05:17:23;;;;;;;5.50;5.10;;;19.80;97.40;;;22.04;51.29;97960.69;5208375;28;20268;-53
2022/06/15 05:19:57;;;;;;;5.10;4.70;;;20.10;97.60;;;22.50;50.02;97956.09;5216668;28;20219;-53
2022/06/15 05:22:30;;;;;;;5.97;5.43;;;20.50;96.50;;;22.49;49.82;97957.81;5194199;28;20223;-55
2022/06/15 05:25:06;;;;;;;5.32;4.93;;;20.60;96.20;;;22.52;49.42;97961.31;5192615;28;20390;-51
2022/06/15 05:27:39;;;;;;;5.07;4.68;;;20.50;96.10;;;22.61;49.96;97964.03;5191556;28;20215;-54
2022/06/15 05:30:14;;;;;;;5.80;5.30;;;20.50;96.50;;;22.86;48.84;97960.81;5200208;28;20726;-55
2022/06/15 05:32:47;;;;;;;5.30;4.85;;;20.70;95.70;;;23.12;48.18;97965.41;5188189;28;20210;-55
2022/06/15 05:35:20;;;;;;;5.53;5.03;;;21.00;95.30;;;23.14;47.92;97958.50;5188584;28;20275;-57
2022/06/15 05:37:53;;;;;;;5.20;4.78;;;20.90;95.40;;;23.17;47.54;97971.56;5192822;28;20266;-55
2022/06/15 05:40:28;;;;;;;5.43;4.93;;;20.90;95.00;;;23.50;47.42;97957.06;5191369;28;20570;-57
2022/06/15 05:43:01;;;;;;;5.70;5.10;;;21.20;95.00;;;23.60;46.77;97958.84;5209686;28;20248;-56
2022/06/15 05:45:34;;;;;;;5.97;5.00;;;21.40;94.60;;;23.89;46.54;97963.41;5173604;28;20252;-56
2022/06/15 05:48:08;;;;;;;5.75;5.07;;;21.60;94.40;;;24.04;45.78;97950.47;5220337;28;20265;-57
2022/06/15 05:50:41;;;;;;;6.50;4.82;;;21.70;94.00;;;23.87;46.49;97962.56;5185298;28;20200;-57
2022/06/15 05:53:14;;;;;;;5.70;5.20;;;21.70;94.00;;;24.10;45.68;97960.06;5170433;28;20196;-55
2022/06/15 05:55:49;;;;;;;6.10;4.90;;;21.80;93.60;;;24.21;46.06;97969.69;5173482;28;20199;-56
2022/06/15 05:58:22;;;;;;;4.93;4.50;;;21.90;94.00;;;24.64;45.37;97958.56;5178352;28;20224;-56
2022/06/15 06:00:55;;;;;;;5.00;4.60;;;22.30;93.60;;;24.97;45.11;97967.34;5182100;28;20199;-55
2022/06/15 06:03:28;;;;;;;4.97;4.57;;;22.40;93.30;;;25.23;44.21;97960.41;5180083;28;20636;-55
2022/06/15 06:06:02;;;;;;;5.53;5.03;;;22.70;93.10;;;25.43;44.14;97965.66;5172861;28;20204;-56
2022/06/15 06:08:35;;;;;;;5.55;4.80;;;22.90;92.90;;;25.75;42.83;97959.50;5178248;28;20250;-56
2022/06/15 06:11:09;;;;;;;4.93;4.47;;;23.20;91.90;;;25.95;42.28;97956.88;5195164;28;20233;-56
2022/06/15 06:13:43;;;;;;;6.22;4.90;;;23.40;91.50;;;26.31;40.62;97941.91;5180289;28;20219;-59
2022/06/15 06:16:22;;;;;;;4.82;4.40;;;23.60;90.50;;;26.57;40.81;97941.81;5177496;28;20206;-57
2022/06/15 06:18:55;;;;;;;4.90;4.50;;;23.80;90.80;;;26.88;40.52;97948.63;5179577;28;20240;-58
2022/06/15 06:21:28;;;;;;;9.55;5.40;;;24.10;90.60;;;27.12;39.81;97950.19;5178852;28;20251;-58
2022/06/15 06:24:01;;;;;;;7.00;4.80;;;24.30;90.20;;;27.25;39.34;97944.91;5175159;28;20231;-57
2022/06/15 06:26:36;;;;;;;7.18;4.85;;;24.40;89.60;;;27.51;38.29;97944.69;5177768;28;20198;-56
2022/06/15 06:29:13;;;;;;;4.85;4.45;;;24.50;87.90;;;27.90;37.38;97942.53;5179648;28;20244;-58
2022/06/15 06:31:46;;;;;;;6.13;4.88;;;24.90;86.50;;;28.29;36.56;97944.72;5177767;28;20231;-58
2022/06/15 06:34:19;;;;;;;7.55;4.78;;;25.40;85.40;;;28.33;36.06;97936.78;5194551;28;20488;-60
2022/06/15 06:36:53;;;;;;;5.32;4.70;;;25.50;84.40;;;28.81;36.14;97945.81;5176141;28;20237;-57
2022/06/15 06:39:29;;;;;;;6.20;4.70;;;26.00;84.30;;;29.37;33.96;97945.88;5179794;28;20291;-58
2022/06/15 06:42:06;;;;;;;5.20;4.30;;;26.30;81.30;;;29.50;34.63;97947.38;5180437;28;20194;-58
2022/06/15 06:44:39;;;;;;;5.72;4.60;;;26.50;82.00;;;29.88;33.96;97947.66;5172571;28;20194;-60
2022/06/15 06:47:12;;;;;;;6.05;4.57;;;26.80;80.70;;;30.11;34.79;97948.06;5175828;28;20641;-58
2022/06/15 06:49:47;;;;;;;7.25;4.50;;;27.20;82.00;;;30.58;33.42;97937.44;5180305;28;20243;-60
2022/06/15 06:52:20;;;;;;;6.82;4.65;;;27.50;79.60;;;30.92;32.97;97940.22;5178838;28;20194;-59
2022/06/15 06:54:53;;;;;;;6.88;4.63;;;27.80;79.30;;;31.14;32.42;97930.03;5178704;28;20234;-60
2022/06/15 06:57:27;;;;;;;8.02;4.47;;;28.00;78.10;;;31.19;32.09;97939.56;5179918;28;20271;-61
2022/06/15 07:00:00;;;;;;;4.53;3.67;;;28.20;77.30;;;31.54;31.14;97932.56;5172878;28;20261;-60
2022/06/15 07:02:34;;;;;;;4.30;3.90;;;28.60;75.40;;;31.66;30.20;97946.38;5173415;28;20207;-59
2022/06/15 07:05:08;;;;;;;5.00;3.70;;;28.90;73.50;;;31.74;28.80;97942.63;5180550;28;20199;-61
2022/06/15 07:07:41;;;;;;;4.13;3.63;;;29.00;70.30;;;31.89;27.37;97937.81;5179300;28;20246;-61
2022/06/15 07:10:15;;;;;;;4.07;3.67;;;29.20;67.30;;;31.82;27.83;97943.28;5175369;28;20198;-61
2022/06/15 07:12:50;;;;;;;4.93;3.70;;;29.30;68.00;;;31.77;29.17;97936.38;5175402;28;20202;-60
2022/06/15 07:15:23;;;;;;;4.13;3.83;;;29.30;70.00;;;31.76;30.27;97932.84;5181044;28;20206;-61
2022/06/15 07:17:59;;;;;;;4.72;3.70;;;29.20;71.40;;;31.85;28.93;97931.75;5176232;28;20218;-60
2022/06/15 07:20:32;;;;;;;5.53;3.60;;;29.30;69.80;;;31.87;29.68;97929.91;5175837;28;20709;-59
2022/06/15 07:23:06;;;;;;;3.60;3.30;;;29.20;70.40;;;32.07;28.40;97929.41;5175960;28;20230;-62
2022/06/15 07:25:39;;;;;;;4.57;3.85;;;29.40;67.80;;;32.49;28.67;97929.09;5176241;28;20684;-60
2022/06/15 07:28:15;;;;;;;4.70;3.65;;;29.60;68.60;;;32.33;29.30;97926.00;5176989;28;20226;-60
2022/06/15 07:30:48;;;;;;;4.03;3.30;;;29.90;69.40;;;32.83;28.47;97930.72;5180639;28;20744;-61
2022/06/15 07:33:21;;;;;;;4.28;3.60;;;30.30;68.70;;;32.70;28.07;97930.22;5179903;28;20234;-61
2022/06/15 07:35:54;;;;;;;4.78;3.50;;;30.20;67.90;;;31.99;29.17;97931.38;5182489;28;20198;-61
2022/06/15 07:38:28;;;;;;;3.80;3.47;;;29.70;68.60;;;32.06;29.83;97930.31;5182766;28;20663;-59
2022/06/15 07:41:03;;;;;;;3.88;3.53;;;29.90;69.40;;;31.95;30.08;97935.03;5180695;28;20301;-62
2022/06/15 07:43:39;;;;;;;3.95;3.60;;;29.90;69.10;;;32.38;29.24;97928.53;5179076;28;20224;-61
2022/06/15 07:46:12;;;;;;;4.80;3.45;;;30.00;68.10;;;32.53;28.93;97925.44;5176487;28;20666;-62
2022/06/15 07:51:40;;;;;;;4.18;3.72;;;30.10;66.90;;;32.24;29.16;97932.44;5179430;28;20218;-60
2022/06/15 07:54:16;;;;;;;4.30;3.22;;;30.10;67.60;;;32.67;28.41;97931.19;5183387;28;20600;-58
2022/06/15 07:56:51;;;;;;;3.78;3.33;;;30.10;66.40;;;33.10;29.33;97932.50;5175744;28;20198;-61
2022/06/15 07:59:26;;;;;;;3.72;3.30;;;30.30;68.90;;;33.56;29.07;97932.78;5182394;28;20201;-61
2022/06/15 08:01:59;;;;;;;4.13;3.20;;;30.60;69.10;;;33.49;28.74;97937.41;5175728;28;20202;-60
2022/06/15 08:04:33;;;;;;;4.07;3.33;;;30.50;69.00;;;33.96;26.96;97928.72;5176712;28;20289;-61
2022/06/15 08:07:08;;;;;;;3.88;3.10;;;30.70;67.40;;;33.85;27.94;97931.75;5179075;28;20691;-61
2022/06/15 08:09:42;;;;;;;3.15;2.95;;;30.80;68.20;;;34.20;27.48;97927.03;5171658;28;20226;-60
2022/06/15 08:12:18;;;;;;;3.65;3.15;;;30.90;66.80;;;33.72;28.26;97928.69;5182970;28;20242;-61
2022/06/15 08:14:55;;;;;;;4.90;3.47;;;31.00;67.10;;;34.34;27.10;97926.47;5182231;28;20229;-61
2022/06/15 08:17:33;;;;;;;3.83;3.50;;;31.30;66.90;;;33.79;28.38;97934.63;5180782;28;20240;-60
2022/06/15 08:20:12;;;;;;;3.45;3.15;;;31.30;66.40;;;34.59;27.39;97931.75;5181848;28;20270;-58
2022/06/15 08:22:50;;;;;;;5.68;3.10;;;31.70;65.70;;;34.49;26.35;97929.44;5182836;28;20240;-61
2022/06/15 08:25:27;;;;;;;4.05;3.03;;;31.70;64.70;;;34.34;25.69;97929.13;5177282;28;20615;-61
2022/06/15 08:28:01;;;;;;;3.70;3.15;;;31.80;63.40;;;33.88;27.20;97929.00;5181553;28;20264;-62
2022/06/15 08:30:37;;;;;;;4.38;3.25;;;31.60;64.20;;;33.99;27.62;97929.47;5175049;28;20276;-59
2022/06/15 08:33:11;;;;;;;3.25;2.95;;;31.80;65.70;;;33.83;27.77;97930.97;5180836;28;20659;-61
2022/06/15 08:35:44;;;;;;;3.50;3.08;;;31.80;63.70;;;33.68;26.96;97934.16;5180938;28;20616;-60
2022/06/15 08:38:21;;;;;;;3.60;3.25;;;31.70;63.80;;;33.69;27.67;97927.94;5174837;28;20295;-61
2022/06/15 08:40:59;;;;;;;3.67;3.00;;;31.70;63.30;;;33.48;29.03;97922.44;5174265;28;20214;-60
2022/06/15 08:43:51;;;;;;;5.28;3.67;;;31.70;66.10;;;33.24;29.52;97926.75;5182163;28;20251;-61
2022/06/15 08:46:42;;;;;;;3.92;3.40;;;31.60;66.10;;;33.61;28.94;97931.72;5170821;28;20203;-60
2022/06/15 08:49:43;;;;;;;3.60;3.10;;;31.80;66.50;;;33.94;28.16;97931.47;5170883;28;20282;-60
2022/06/15 08:52:31;;;;;;;3.15;2.95;;;32.00;63.90;;;33.96;27.96;97932.25;5176921;28;20202;-60
2022/06/15 08:55:12;;;;;;;2.90;2.70;;;32.30;64.60;;;34.13;28.05;97922.84;5174166;28;20713;-61
2022/06/15 08:57:51;;;;;;;5.10;2.97;;;32.40;65.10;;;34.11;27.62;97924.69;5174454;28;20275;-60
2022/06/15 09:00:28;;;;;;;3.85;3.45;;;32.40;63.80;;;33.83;27.72;97937.13;5176255;28;20226;-60
2022/06/15 09:03:21;;;;;;;3.70;3.40;;;32.10;63.20;;;33.33;28.94;97938.84;5179168;28;20613;-59
2022/06/15 09:06:09;;;;;;;4.10;3.60;;;31.60;66.00;;;33.29;29.30;97937.22;5178291;28;20252;-60
2022/06/15 09:09:05;;;;;;;3.40;3.10;;;31.70;65.90;;;33.28;30.10;97936.34;5174259;28;20258;-60
2022/06/15 09:15:24;;;;;;;3.65;3.35;;;31.70;65.40;;;33.53;28.91;97936.41;5173015;28;20259;-61
2022/06/15 09:18:00;;;;;;;3.60;3.30;;;31.90;64.90;;;33.46;28.59;97934.88;5174646;28;20684;-59
2022/06/15 09:20:43;;;;;;;3.28;3.08;;;31.80;64.60;;;33.35;28.49;97937.88;5179657;28;20237;-60
2022/06/15 09:23:22;;;;;;;4.50;3.28;;;31.70;64.50;;;33.09;29.25;97940.53;5178856;28;20194;-61
2022/06/15 09:26:00;;;;;;;3.80;3.40;;;31.40;65.70;;;33.27;29.34;97936.41;5177768;28;20643;-61
2022/06/15 09:28:38;;;;;;;3.47;3.17;;;31.40;65.70;;;32.11;31.18;97939.00;5183917;28;20218;-58
2022/06/15 09:31:17;;;;;;;4.32;3.20;;;31.10;66.40;;;31.90;30.36;97934.25;5178247;28;20554;-59
2022/06/15 09:33:58;;;;;;;3.85;3.55;;;30.60;66.20;;;31.93;32.45;97935.06;5171793;28;20577;-58
2022/06/15 09:36:45;;;;;;;3.47;3.17;;;30.70;70.10;;;32.14;32.42;97930.97;5185016;28;20595;-61
2022/06/15 09:39:20;;;;;;;3.60;3.30;;;30.80;69.10;;;32.00;31.88;97935.78;5169897;28;20244;-58
2022/06/15 09:42:03;;;;;;;3.70;3.40;;;30.80;68.90;;;31.65;32.49;97937.56;5178400;28;20599;-64
2022/06/15 09:44:45;;;;;;;4.95;3.58;;;30.60;69.00;;;31.85;31.74;97935.25;5181828;28;20617;-62
2022/06/15 09:47:38;;;;;;;3.20;2.90;;;30.80;67.40;;;32.04;27.79;97930.34;5169306;28;20218;-61
2022/06/15 09:50:26;;;;;;;3.97;3.30;;;30.90;62.20;;;31.84;29.08;97922.06;5174283;28;20256;-62
2022/06/15 09:53:30;;;;;;;3.13;2.90;;;30.80;63.50;;;32.07;29.81;97921.47;5180525;28;20259;-62
2022/06/15 09:56:07;;;;;;;3.50;3.20;;;30.80;65.00;;;32.12;29.56;97924.84;5180003;28;20234;-61
2022/06/15 09:58:55;;;;;;;3.78;3.33;;;30.80;64.00;;;32.08;29.53;97925.84;5180900;28;20625;-60
2022/06/15 10:01:33;;;;;;;3.17;2.95;;;30.80;63.60;;;32.00;28.51;97922.56;5177296;28;20222;-62
2022/06/15 10:04:11;;;;;;;4.05;3.00;;;30.60;61.60;;;31.87;28.24;97921.97;5167252;28;20667;-62
2022/06/15 10:07:11;;;;;;;3.03;2.83;;;30.60;61.40;;;31.49;29.82;97926.53;5182352;28;20218;-62
2022/06/15 10:09:52;;;;;;;3.75;2.65;;;30.50;64.10;;;31.50;29.58;97925.59;5177872;28;20247;-61
2022/06/15 10:12:59;;;;;;;3.83;3.53;;;30.40;63.00;;;31.25;30.21;97924.44;5178345;28;20608;-61
2022/06/15 10:15:52;;;;;;;3.60;3.30;;;30.20;63.00;;;31.03;29.56;97932.06;5169338;28;20193;-62
2022/06/15 10:18:36;;;;;;;3.63;3.13;;;29.80;62.60;;;30.90;30.62;97920.91;5180404;28;20271;-62
2022/06/15 10:21:20;;;;;;;3.75;3.25;;;29.80;65.50;;;30.97;29.33;97925.16;5171517;28;20252;-62
2022/06/15 10:24:02;;;;;;;3.25;2.95;;;29.90;61.70;;;31.23;29.91;97918.38;5174972;28;20198;-62
2022/06/15 10:26:42;;;;;;;3.22;3.00;;;30.30;63.10;;;31.11;28.88;97924.81;5163735;28;20197;-62
2022/06/15 10:29:31;;;;;;;3.13;2.58;;;30.20;60.60;;;31.02;28.29;97917.09;5172763;28;20221;-61
2022/06/15 10:32:18;;;;;;;2.80;2.60;;;30.20;61.00;;;31.13;27.97;97920.34;5179976;28;20238;-61
2022/06/15 10:35:07;;;;;;;2.90;2.70;;;30.10;59.90;;;31.24;28.75;97917.44;5179195;28;20237;-60
2022/06/15 10:37:47;;;;;;;3.25;2.78;;;30.20;61.00;;;31.23;27.96;97911.31;5179458;28;20601;-59
2022/06/15 10:40:27;;;;;;;3.03;2.78;;;30.20;60.70;;;31.35;26.89;97913.66;5187707;28;20293;-61
2022/06/15 10:43:06;;;;;;;3.00;2.80;;;30.30;58.50;;;31.38;28.31;97913.56;5184413;28;20226;-62
2022/06/15 10:45:44;;;;;;;3.40;3.10;;;30.30;60.50;;;31.35;28.91;97915.41;5185075;28;20250;-61
2022/06/15 10:48:21;;;;;;;3.47;3.17;;;30.40;61.70;;;31.39;28.80;97907.41;5178034;28;20721;-61
2022/06/15 10:51:03;;;;;;;3.53;3.10;;;30.30;61.50;;;31.22;30.07;97906.94;5181363;28;20190;-61
2022/06/15 10:53:46;;;;;;;3.60;3.30;;;30.20;63.80;;;30.99;29.70;97910.09;5182186;28;20290;-61
2022/06/15 11:02:30;;;;;;;3.80;3.50;;;30.30;62.40;;;31.11;30.03;97903.69;5173010;28;20223;-62
2022/06/15 11:05:14;;;;;;;3.22;3.03;;;30.10;63.00;;;30.90;29.94;97900.63;5184699;28;20628;-62
2022/06/15 11:07:53;;;;;;;3.85;3.30;;;29.90;62.40;;;31.05;30.29;97901.16;5180368;28;20241;-61
2022/06/15 11:10:32;;;;;;;4.00;3.70;;;30.00;63.60;;;30.96;31.36;97900.53;5178793;28;20204;-62
2022/06/15 11:13:20;;;;;;;3.78;3.47;;;29.90;65.20;;;30.82;30.67;97892.06;5184771;28;20243;-62
2022/06/15 11:19:01;;;;;;;3.80;3.50;;;29.70;63.40;;;30.66;30.89;97885.34;5178543;28;20215;-61
2022/06/15 11:21:42;;;;;;;3.90;3.60;;;29.50;64.00;;;30.78;31.44;97890.34;5176585;28;20287;-61
2022/06/15 11:24:33;;;;;;;3.50;3.20;;;29.70;65.10;;;30.74;30.58;97886.06;5183428;28;20198;-62